sensor_id;sensor_type;location;lat;lon;timestamp;P1;durP1;ratioP1;P2;durP2;ratioP2
50709;SDS011;37033;49.994;21.992;2022-08-19T00:00:10;16.30;;;14.60;;
50709;SDS011;37033;49.994;21.992;2022-08-19T00:03:06;16.60;;;14.90;;
50709;SDS011;37033;49.994;21.992;2022-08-19T00:05:56;16.90;;;15.20;;
50709;SDS011;37033;49.994;21.992;2022-08-19T00:08:46;15.40;;;13.80;;
50709;SDS011;37033;49.994;21.992;2022-08-19T00:11:38;18.30;;;14.40;;
50709;SDS011;37033;49.994;21.992;2022-08-19T00:14:29;20.60;;;14.70;;
50709;SDS011;37033;49.994;21.992;2022-08-19T00:17:20;20.80;;;15.10;;
50709;SDS011;37033;49.994;21.992;2022-08-19T00:20:11;19.40;;;16.10;;
50709;SDS011;37033;49.994;21.992;2022-08-19T00:23:04;16.80;;;15.20;;
50709;SDS011;37033;49.994;21.992;2022-08-19T00:25:55;20.40;;;15.30;;
50709;SDS011;37033;49.994;21.992;2022-08-19T00:28:45;17.30;;;15.50;;
50709;SDS011;37033;49.994;21.992;2022-08-19T00:31:36;18.00;;;15.80;;
50709;SDS011;37033;49.994;21.992;2022-08-19T00:34:27;17.60;;;14.80;;
50709;SDS011;37033;49.994;21.992;2022-08-19T00:37:18;20.20;;;15.10;;
50709;SDS011;37033;49.994;21.992;2022-08-19T00:40:10;20.30;;;15.20;;
50709;SDS011;37033;49.994;21.992;2022-08-19T00:43:02;17.40;;;15.20;;
50709;SDS011;37033;49.994;21.992;2022-08-19T00:46:00;21.10;;;15.70;;
50709;SDS011;37033;49.994;21.992;2022-08-19T00:48:51;19.20;;;15.80;;
50709;SDS011;37033;49.994;21.992;2022-08-19T00:51:42;17.10;;;15.40;;
50709;SDS011;37033;49.994;21.992;2022-08-19T00:54:36;15.10;;;13.60;;
50709;SDS011;37033;49.994;21.992;2022-08-19T00:57:29;17.20;;;15.30;;
50709;SDS011;37033;49.994;21.992;2022-08-19T01:00:23;17.00;;;14.50;;
50709;SDS011;37033;49.994;21.992;2022-08-19T01:03:18;20.20;;;14.60;;
50709;SDS011;37033;49.994;21.992;2022-08-19T01:06:10;15.50;;;13.80;;
50709;SDS011;37033;49.994;21.992;2022-08-19T01:09:01;19.90;;;15.40;;
50709;SDS011;37033;49.994;21.992;2022-08-19T01:11:52;17.40;;;13.60;;
50709;SDS011;37033;49.994;21.992;2022-08-19T01:14:43;16.50;;;13.80;;
50709;SDS011;37033;49.994;21.992;2022-08-19T01:17:36;16.90;;;14.40;;
50709;SDS011;37033;49.994;21.992;2022-08-19T01:20:28;15.60;;;14.10;;
50709;SDS011;37033;49.994;21.992;2022-08-19T01:23:20;18.10;;;14.80;;
50709;SDS011;37033;49.994;21.992;2022-08-19T01:26:29;17.70;;;14.50;;
50709;SDS011;37033;49.994;21.992;2022-08-19T01:29:19;16.70;;;14.70;;
50709;SDS011;37033;49.994;21.992;2022-08-19T01:32:11;16.10;;;14.00;;
50709;SDS011;37033;49.994;21.992;2022-08-19T01:35:04;14.80;;;13.00;;
50709;SDS011;37033;49.994;21.992;2022-08-19T01:37:57;15.90;;;13.50;;
50709;SDS011;37033;49.994;21.992;2022-08-19T01:40:49;16.30;;;14.70;;
50709;SDS011;37033;49.994;21.992;2022-08-19T01:43:39;15.90;;;14.20;;
50709;SDS011;37033;49.994;21.992;2022-08-19T01:46:30;18.00;;;14.10;;
50709;SDS011;37033;49.994;21.992;2022-08-19T01:49:21;16.00;;;14.30;;
50709;SDS011;37033;49.994;21.992;2022-08-19T01:52:13;16.70;;;14.40;;
50709;SDS011;37033;49.994;21.992;2022-08-19T01:55:05;19.10;;;14.10;;
50709;SDS011;37033;49.994;21.992;2022-08-19T01:57:58;16.80;;;15.10;;
50709;SDS011;37033;49.994;21.992;2022-08-19T02:00:50;14.30;;;12.90;;
50709;SDS011;37033;49.994;21.992;2022-08-19T02:03:41;16.50;;;14.80;;
50709;SDS011;37033;49.994;21.992;2022-08-19T02:06:31;15.90;;;14.30;;
50709;SDS011;37033;49.994;21.992;2022-08-19T02:09:22;15.20;;;13.30;;
50709;SDS011;37033;49.994;21.992;2022-08-19T02:12:12;15.00;;;13.60;;
50709;SDS011;37033;49.994;21.992;2022-08-19T02:15:03;18.70;;;14.00;;
50709;SDS011;37033;49.994;21.992;2022-08-19T02:17:55;15.60;;;13.90;;
50709;SDS011;37033;49.994;21.992;2022-08-19T02:20:46;16.50;;;14.80;;
50709;SDS011;37033;49.994;21.992;2022-08-19T02:23:37;15.60;;;14.10;;
50709;SDS011;37033;49.994;21.992;2022-08-19T02:26:28;16.00;;;13.90;;
50709;SDS011;37033;49.994;21.992;2022-08-19T02:29:19;16.70;;;14.10;;
50709;SDS011;37033;49.994;21.992;2022-08-19T02:32:10;15.90;;;14.20;;
50709;SDS011;37033;49.994;21.992;2022-08-19T02:35:01;19.70;;;14.70;;
50709;SDS011;37033;49.994;21.992;2022-08-19T02:37:52;17.80;;;15.20;;
50709;SDS011;37033;49.994;21.992;2022-08-19T02:41:02;16.40;;;14.20;;
50709;SDS011;37033;49.994;21.992;2022-08-19T02:43:57;16.20;;;14.80;;
50709;SDS011;37033;49.994;21.992;2022-08-19T02:46:49;16.90;;;15.20;;
50709;SDS011;37033;49.994;21.992;2022-08-19T02:49:39;17.00;;;15.10;;
50709;SDS011;37033;49.994;21.992;2022-08-19T02:52:30;20.50;;;15.70;;
50709;SDS011;37033;49.994;21.992;2022-08-19T02:55:21;19.30;;;16.10;;
50709;SDS011;37033;49.994;21.992;2022-08-19T02:58:11;23.00;;;15.90;;
50709;SDS011;37033;49.994;21.992;2022-08-19T03:01:03;18.70;;;15.00;;
50709;SDS011;37033;49.994;21.992;2022-08-19T03:03:53;19.30;;;15.00;;
50709;SDS011;37033;49.994;21.992;2022-08-19T03:06:47;18.10;;;14.90;;
50709;SDS011;37033;49.994;21.992;2022-08-19T03:09:37;17.20;;;15.30;;
50709;SDS011;37033;49.994;21.992;2022-08-19T03:12:28;17.30;;;15.00;;
50709;SDS011;37033;49.994;21.992;2022-08-19T03:15:19;18.90;;;15.60;;
50709;SDS011;37033;49.994;21.992;2022-08-19T03:18:10;23.30;;;15.80;;
50709;SDS011;37033;49.994;21.992;2022-08-19T03:21:01;18.40;;;15.20;;
50709;SDS011;37033;49.994;21.992;2022-08-19T03:23:53;16.00;;;14.50;;
50709;SDS011;37033;49.994;21.992;2022-08-19T03:26:45;17.20;;;15.40;;
50709;SDS011;37033;49.994;21.992;2022-08-19T03:29:37;19.00;;;14.90;;
50709;SDS011;37033;49.994;21.992;2022-08-19T03:32:27;19.50;;;15.60;;
50709;SDS011;37033;49.994;21.992;2022-08-19T03:35:18;16.30;;;14.70;;
50709;SDS011;37033;49.994;21.992;2022-08-19T03:38:08;18.00;;;15.00;;
50709;SDS011;37033;49.994;21.992;2022-08-19T03:40:59;18.00;;;15.10;;
50709;SDS011;37033;49.994;21.992;2022-08-19T03:43:53;16.90;;;15.10;;
50709;SDS011;37033;49.994;21.992;2022-08-19T03:46:45;17.60;;;15.80;;
50709;SDS011;37033;49.994;21.992;2022-08-19T03:49:36;17.30;;;15.50;;
50709;SDS011;37033;49.994;21.992;2022-08-19T03:52:26;16.90;;;15.30;;
50709;SDS011;37033;49.994;21.992;2022-08-19T03:55:17;17.10;;;15.30;;
50709;SDS011;37033;49.994;21.992;2022-08-19T03:58:08;19.20;;;16.60;;
50709;SDS011;37033;49.994;21.992;2022-08-19T04:00:58;21.50;;;16.30;;
50709;SDS011;37033;49.994;21.992;2022-08-19T04:03:49;18.20;;;15.30;;
50709;SDS011;37033;49.994;21.992;2022-08-19T04:06:39;21.00;;;16.80;;
50709;SDS011;37033;49.994;21.992;2022-08-19T04:09:32;18.00;;;16.10;;
50709;SDS011;37033;49.994;21.992;2022-08-19T04:12:23;17.80;;;16.00;;
50709;SDS011;37033;49.994;21.992;2022-08-19T04:15:14;21.00;;;16.80;;
50709;SDS011;37033;49.994;21.992;2022-08-19T04:18:04;16.50;;;14.70;;
50709;SDS011;37033;49.994;21.992;2022-08-19T04:20:55;20.50;;;15.30;;
50709;SDS011;37033;49.994;21.992;2022-08-19T04:23:46;17.70;;;15.00;;
50709;SDS011;37033;49.994;21.992;2022-08-19T04:26:37;17.40;;;15.30;;
50709;SDS011;37033;49.994;21.992;2022-08-19T04:29:28;18.20;;;15.50;;
50709;SDS011;37033;49.994;21.992;2022-08-19T04:32:19;17.70;;;15.00;;
50709;SDS011;37033;49.994;21.992;2022-08-19T04:35:09;17.00;;;15.40;;
50709;SDS011;37033;49.994;21.992;2022-08-19T04:38:00;23.40;;;15.20;;
50709;SDS011;37033;49.994;21.992;2022-08-19T04:40:51;16.40;;;14.80;;
50709;SDS011;37033;49.994;21.992;2022-08-19T04:43:59;17.10;;;14.50;;
50709;SDS011;37033;49.994;21.992;2022-08-19T04:46:50;18.00;;;14.30;;
50709;SDS011;37033;49.994;21.992;2022-08-19T04:49:41;17.10;;;14.30;;
50709;SDS011;37033;49.994;21.992;2022-08-19T04:52:31;18.80;;;14.60;;
50709;SDS011;37033;49.994;21.992;2022-08-19T04:55:22;16.80;;;14.70;;
50709;SDS011;37033;49.994;21.992;2022-08-19T04:58:13;18.70;;;15.00;;
50709;SDS011;37033;49.994;21.992;2022-08-19T05:01:04;19.60;;;13.30;;
50709;SDS011;37033;49.994;21.992;2022-08-19T05:03:57;19.20;;;14.70;;
50709;SDS011;37033;49.994;21.992;2022-08-19T05:06:48;18.40;;;13.20;;
50709;SDS011;37033;49.994;21.992;2022-08-19T05:09:40;14.50;;;13.20;;
50709;SDS011;37033;49.994;21.992;2022-08-19T05:12:30;16.00;;;13.10;;
50709;SDS011;37033;49.994;21.992;2022-08-19T05:15:21;30.20;;;21.60;;
50709;SDS011;37033;49.994;21.992;2022-08-19T05:18:12;22.00;;;15.50;;
50709;SDS011;37033;49.994;21.992;2022-08-19T05:21:21;15.60;;;13.10;;
50709;SDS011;37033;49.994;21.992;2022-08-19T05:24:29;15.20;;;13.20;;
50709;SDS011;37033;49.994;21.992;2022-08-19T05:27:21;16.40;;;13.30;;
50709;SDS011;37033;49.994;21.992;2022-08-19T05:30:12;15.40;;;12.10;;
50709;SDS011;37033;49.994;21.992;2022-08-19T05:33:02;18.30;;;12.10;;
50709;SDS011;37033;49.994;21.992;2022-08-19T05:35:52;13.60;;;11.70;;
50709;SDS011;37033;49.994;21.992;2022-08-19T05:38:43;13.10;;;11.20;;
50709;SDS011;37033;49.994;21.992;2022-08-19T05:41:34;14.30;;;10.90;;
50709;SDS011;37033;49.994;21.992;2022-08-19T05:44:29;12.70;;;11.40;;
50709;SDS011;37033;49.994;21.992;2022-08-19T05:47:21;14.10;;;12.20;;
50709;SDS011;37033;49.994;21.992;2022-08-19T05:50:12;13.40;;;11.60;;
50709;SDS011;37033;49.994;21.992;2022-08-19T05:53:04;16.50;;;10.20;;
50709;SDS011;37033;49.994;21.992;2022-08-19T05:55:55;12.80;;;11.20;;
50709;SDS011;37033;49.994;21.992;2022-08-19T05:58:46;12.70;;;10.00;;
50709;SDS011;37033;49.994;21.992;2022-08-19T06:01:36;13.00;;;10.00;;
50709;SDS011;37033;49.994;21.992;2022-08-19T06:04:29;16.50;;;10.40;;
50709;SDS011;37033;49.994;21.992;2022-08-19T06:07:20;13.20;;;10.80;;
50709;SDS011;37033;49.994;21.992;2022-08-19T06:10:11;15.60;;;10.20;;
50709;SDS011;37033;49.994;21.992;2022-08-19T06:13:01;13.20;;;9.30;;
50709;SDS011;37033;49.994;21.992;2022-08-19T06:15:52;10.30;;;9.30;;
50709;SDS011;37033;49.994;21.992;2022-08-19T06:18:42;17.70;;;10.30;;
50709;SDS011;37033;49.994;21.992;2022-08-19T06:21:33;10.60;;;9.50;;
50709;SDS011;37033;49.994;21.992;2022-08-19T06:24:26;11.30;;;10.30;;
50709;SDS011;37033;49.994;21.992;2022-08-19T06:27:17;11.30;;;9.70;;
50709;SDS011;37033;49.994;21.992;2022-08-19T06:30:08;10.50;;;9.40;;
50709;SDS011;37033;49.994;21.992;2022-08-19T06:33:00;12.00;;;9.90;;
50709;SDS011;37033;49.994;21.992;2022-08-19T06:35:50;15.10;;;9.10;;
50709;SDS011;37033;49.994;21.992;2022-08-19T06:38:41;10.40;;;9.40;;
50709;SDS011;37033;49.994;21.992;2022-08-19T06:41:32;10.40;;;7.70;;
50709;SDS011;37033;49.994;21.992;2022-08-19T06:44:25;12.80;;;8.40;;
50709;SDS011;37033;49.994;21.992;2022-08-19T06:47:21;9.50;;;8.60;;
50709;SDS011;37033;49.994;21.992;2022-08-19T06:50:11;13.70;;;8.70;;
50709;SDS011;37033;49.994;21.992;2022-08-19T06:53:02;10.40;;;8.50;;
50709;SDS011;37033;49.994;21.992;2022-08-19T06:55:52;13.90;;;8.30;;
50709;SDS011;37033;49.994;21.992;2022-08-19T06:58:46;15.20;;;9.10;;
50709;SDS011;37033;49.994;21.992;2022-08-19T07:01:39;10.10;;;8.00;;
50709;SDS011;37033;49.994;21.992;2022-08-19T07:04:33;12.30;;;8.60;;
50709;SDS011;37033;49.994;21.992;2022-08-19T07:07:25;9.90;;;8.60;;
50709;SDS011;37033;49.994;21.992;2022-08-19T07:10:16;14.60;;;8.50;;
50709;SDS011;37033;49.994;21.992;2022-08-19T07:13:06;12.10;;;8.60;;
50709;SDS011;37033;49.994;21.992;2022-08-19T07:15:57;13.10;;;8.10;;
50709;SDS011;37033;49.994;21.992;2022-08-19T07:18:50;12.70;;;7.80;;
50709;SDS011;37033;49.994;21.992;2022-08-19T07:21:41;12.40;;;11.20;;
50709;SDS011;37033;49.994;21.992;2022-08-19T07:24:31;12.50;;;7.60;;
50709;SDS011;37033;49.994;21.992;2022-08-19T07:27:22;9.30;;;7.90;;
50709;SDS011;37033;49.994;21.992;2022-08-19T07:30:13;12.40;;;7.40;;
50709;SDS011;37033;49.994;21.992;2022-08-19T07:33:03;8.20;;;7.50;;
50709;SDS011;37033;49.994;21.992;2022-08-19T07:35:53;9.30;;;8.00;;
50709;SDS011;37033;49.994;21.992;2022-08-19T07:38:45;9.90;;;7.40;;
50709;SDS011;37033;49.994;21.992;2022-08-19T07:41:36;8.70;;;7.70;;
50709;SDS011;37033;49.994;21.992;2022-08-19T07:44:27;7.90;;;7.10;;
50709;SDS011;37033;49.994;21.992;2022-08-19T07:47:17;8.10;;;7.40;;
50709;SDS011;37033;49.994;21.992;2022-08-19T07:50:08;7.70;;;7.00;;
50709;SDS011;37033;49.994;21.992;2022-08-19T07:53:00;10.50;;;8.10;;
50709;SDS011;37033;49.994;21.992;2022-08-19T07:55:50;8.10;;;7.20;;
50709;SDS011;37033;49.994;21.992;2022-08-19T07:58:42;7.40;;;6.70;;
50709;SDS011;37033;49.994;21.992;2022-08-19T08:01:33;7.70;;;7.00;;
50709;SDS011;37033;49.994;21.992;2022-08-19T08:04:24;8.30;;;6.70;;
50709;SDS011;37033;49.994;21.992;2022-08-19T08:07:32;11.70;;;7.20;;
50709;SDS011;37033;49.994;21.992;2022-08-19T08:10:40;8.90;;;6.80;;
50709;SDS011;37033;49.994;21.992;2022-08-19T08:13:31;7.30;;;6.60;;
50709;SDS011;37033;49.994;21.992;2022-08-19T08:16:22;7.50;;;6.80;;
50709;SDS011;37033;49.994;21.992;2022-08-19T08:19:17;7.60;;;6.90;;
50709;SDS011;37033;49.994;21.992;2022-08-19T08:22:09;8.10;;;6.80;;
50709;SDS011;37033;49.994;21.992;2022-08-19T08:25:24;9.50;;;6.30;;
50709;SDS011;37033;49.994;21.992;2022-08-19T08:28:15;7.10;;;6.50;;
50709;SDS011;37033;49.994;21.992;2022-08-19T08:31:06;8.20;;;7.20;;
50709;SDS011;37033;49.994;21.992;2022-08-19T08:33:57;7.40;;;6.40;;
50709;SDS011;37033;49.994;21.992;2022-08-19T08:36:47;8.50;;;7.00;;
50709;SDS011;37033;49.994;21.992;2022-08-19T08:39:39;7.30;;;6.70;;
50709;SDS011;37033;49.994;21.992;2022-08-19T08:42:30;11.90;;;6.90;;
50709;SDS011;37033;49.994;21.992;2022-08-19T08:45:25;8.40;;;7.20;;
50709;SDS011;37033;49.994;21.992;2022-08-19T08:48:18;10.40;;;6.80;;
50709;SDS011;37033;49.994;21.992;2022-08-19T08:51:13;10.50;;;8.50;;
50709;SDS011;37033;49.994;21.992;2022-08-19T08:54:10;8.50;;;7.60;;
50709;SDS011;37033;49.994;21.992;2022-08-19T08:57:04;7.40;;;6.30;;
50709;SDS011;37033;49.994;21.992;2022-08-19T09:00:00;7.50;;;6.80;;
50709;SDS011;37033;49.994;21.992;2022-08-19T09:02:54;9.70;;;6.90;;
50709;SDS011;37033;49.994;21.992;2022-08-19T09:05:48;7.50;;;6.60;;
50709;SDS011;37033;49.994;21.992;2022-08-19T09:08:48;9.80;;;7.00;;
50709;SDS011;37033;49.994;21.992;2022-08-19T09:11:50;7.00;;;6.40;;
50709;SDS011;37033;49.994;21.992;2022-08-19T09:14:51;9.50;;;8.40;;
50709;SDS011;37033;49.994;21.992;2022-08-19T09:17:45;13.60;;;9.10;;
50709;SDS011;37033;49.994;21.992;2022-08-19T09:20:36;7.80;;;6.90;;
50709;SDS011;37033;49.994;21.992;2022-08-19T09:23:26;7.00;;;6.40;;
50709;SDS011;37033;49.994;21.992;2022-08-19T09:26:17;9.00;;;6.50;;
50709;SDS011;37033;49.994;21.992;2022-08-19T09:29:09;10.30;;;7.60;;
50709;SDS011;37033;49.994;21.992;2022-08-19T09:32:00;8.20;;;7.60;;
50709;SDS011;37033;49.994;21.992;2022-08-19T09:34:51;7.00;;;6.40;;
50709;SDS011;37033;49.994;21.992;2022-08-19T09:37:41;6.70;;;6.20;;
50709;SDS011;37033;49.994;21.992;2022-08-19T09:40:32;6.70;;;6.10;;
50709;SDS011;37033;49.994;21.992;2022-08-19T09:43:22;6.50;;;5.60;;
50709;SDS011;37033;49.994;21.992;2022-08-19T09:46:12;8.70;;;6.10;;
50709;SDS011;37033;49.994;21.992;2022-08-19T09:49:04;8.80;;;6.20;;
50709;SDS011;37033;49.994;21.992;2022-08-19T09:51:54;5.90;;;5.40;;
50709;SDS011;37033;49.994;21.992;2022-08-19T09:54:45;7.00;;;6.20;;
50709;SDS011;37033;49.994;21.992;2022-08-19T10:00:28;6.60;;;6.00;;
50709;SDS011;37033;49.994;21.992;2022-08-19T10:03:19;6.20;;;5.70;;
50709;SDS011;37033;49.994;21.992;2022-08-19T10:06:10;8.20;;;5.40;;
50709;SDS011;37033;49.994;21.992;2022-08-19T10:09:00;9.00;;;5.40;;
50709;SDS011;37033;49.994;21.992;2022-08-19T10:11:51;6.80;;;5.40;;
50709;SDS011;37033;49.994;21.992;2022-08-19T10:14:41;8.50;;;5.50;;
50709;SDS011;37033;49.994;21.992;2022-08-19T10:17:33;6.20;;;5.60;;
50709;SDS011;37033;49.994;21.992;2022-08-19T10:20:24;5.40;;;4.90;;
50709;SDS011;37033;49.994;21.992;2022-08-19T10:23:17;5.90;;;5.40;;
50709;SDS011;37033;49.994;21.992;2022-08-19T10:26:08;6.10;;;5.40;;
50709;SDS011;37033;49.994;21.992;2022-08-19T10:28:59;6.90;;;5.70;;
50709;SDS011;37033;49.994;21.992;2022-08-19T10:31:51;5.80;;;5.20;;
50709;SDS011;37033;49.994;21.992;2022-08-19T10:34:43;6.10;;;5.00;;
50709;SDS011;37033;49.994;21.992;2022-08-19T10:37:33;5.70;;;5.30;;
50709;SDS011;37033;49.994;21.992;2022-08-19T10:40:25;5.10;;;4.70;;
50709;SDS011;37033;49.994;21.992;2022-08-19T10:43:16;6.20;;;5.10;;
50709;SDS011;37033;49.994;21.992;2022-08-19T10:46:07;6.90;;;5.30;;
50709;SDS011;37033;49.994;21.992;2022-08-19T10:49:00;7.90;;;7.30;;
50709;SDS011;37033;49.994;21.992;2022-08-19T10:51:51;7.00;;;5.60;;
50709;SDS011;37033;49.994;21.992;2022-08-19T10:54:59;8.00;;;5.10;;
50709;SDS011;37033;49.994;21.992;2022-08-19T10:58:12;5.50;;;4.90;;
50709;SDS011;37033;49.994;21.992;2022-08-19T11:01:03;4.60;;;3.90;;
50709;SDS011;37033;49.994;21.992;2022-08-19T11:03:54;5.70;;;4.90;;
50709;SDS011;37033;49.994;21.992;2022-08-19T11:06:45;6.30;;;4.60;;
50709;SDS011;37033;49.994;21.992;2022-08-19T11:09:38;4.30;;;4.00;;
50709;SDS011;37033;49.994;21.992;2022-08-19T11:12:29;5.90;;;4.10;;
50709;SDS011;37033;49.994;21.992;2022-08-19T11:15:20;5.00;;;4.10;;
50709;SDS011;37033;49.994;21.992;2022-08-19T11:18:11;5.30;;;4.20;;
50709;SDS011;37033;49.994;21.992;2022-08-19T11:21:11;5.30;;;4.00;;
50709;SDS011;37033;49.994;21.992;2022-08-19T11:24:07;6.30;;;4.70;;
50709;SDS011;37033;49.994;21.992;2022-08-19T11:27:04;6.70;;;4.40;;
50709;SDS011;37033;49.994;21.992;2022-08-19T11:29:55;4.70;;;4.30;;
50709;SDS011;37033;49.994;21.992;2022-08-19T11:32:46;4.90;;;4.40;;
50709;SDS011;37033;49.994;21.992;2022-08-19T11:35:39;4.30;;;4.00;;
50709;SDS011;37033;49.994;21.992;2022-08-19T11:38:30;4.80;;;4.40;;
50709;SDS011;37033;49.994;21.992;2022-08-19T11:41:21;5.00;;;4.40;;
50709;SDS011;37033;49.994;21.992;2022-08-19T11:44:12;4.50;;;4.20;;
50709;SDS011;37033;49.994;21.992;2022-08-19T11:47:03;11.00;;;8.70;;
50709;SDS011;37033;49.994;21.992;2022-08-19T11:49:54;5.50;;;4.30;;
50709;SDS011;37033;49.994;21.992;2022-08-19T11:52:44;13.70;;;4.70;;
50709;SDS011;37033;49.994;21.992;2022-08-19T11:55:37;4.40;;;4.00;;
50709;SDS011;37033;49.994;21.992;2022-08-19T11:58:29;5.20;;;4.70;;
50709;SDS011;37033;49.994;21.992;2022-08-19T12:01:21;4.40;;;4.00;;
50709;SDS011;37033;49.994;21.992;2022-08-19T12:04:12;6.50;;;4.50;;
50709;SDS011;37033;49.994;21.992;2022-08-19T12:07:03;5.30;;;4.40;;
50709;SDS011;37033;49.994;21.992;2022-08-19T12:09:53;7.10;;;3.70;;
50709;SDS011;37033;49.994;21.992;2022-08-19T12:12:44;4.00;;;3.00;;
50709;SDS011;37033;49.994;21.992;2022-08-19T12:15:36;4.60;;;3.70;;
50709;SDS011;37033;49.994;21.992;2022-08-19T12:18:27;5.70;;;3.10;;
50709;SDS011;37033;49.994;21.992;2022-08-19T12:21:18;3.70;;;3.30;;
50709;SDS011;37033;49.994;21.992;2022-08-19T12:24:12;4.80;;;4.30;;
50709;SDS011;37033;49.994;21.992;2022-08-19T12:27:07;4.00;;;3.70;;
50709;SDS011;37033;49.994;21.992;2022-08-19T12:29:58;4.70;;;4.00;;
50709;SDS011;37033;49.994;21.992;2022-08-19T12:32:49;8.20;;;6.70;;
50709;SDS011;37033;49.994;21.992;2022-08-19T12:35:40;3.80;;;3.30;;
50709;SDS011;37033;49.994;21.992;2022-08-19T12:38:33;3.60;;;3.30;;
50709;SDS011;37033;49.994;21.992;2022-08-19T12:41:23;5.50;;;3.50;;
50709;SDS011;37033;49.994;21.992;2022-08-19T12:44:15;6.80;;;4.50;;
50709;SDS011;37033;49.994;21.992;2022-08-19T12:47:06;7.50;;;5.60;;
50709;SDS011;37033;49.994;21.992;2022-08-19T12:49:58;4.50;;;4.00;;
50709;SDS011;37033;49.994;21.992;2022-08-19T12:52:48;4.60;;;4.00;;
50709;SDS011;37033;49.994;21.992;2022-08-19T12:55:39;7.70;;;5.60;;
50709;SDS011;37033;49.994;21.992;2022-08-19T12:58:30;6.70;;;4.00;;
50709;SDS011;37033;49.994;21.992;2022-08-19T13:01:21;4.50;;;3.80;;
50709;SDS011;37033;49.994;21.992;2022-08-19T13:04:12;4.10;;;3.60;;
50709;SDS011;37033;49.994;21.992;2022-08-19T13:07:03;4.20;;;3.70;;
50709;SDS011;37033;49.994;21.992;2022-08-19T13:09:53;8.40;;;4.40;;
50709;SDS011;37033;49.994;21.992;2022-08-19T13:12:44;11.40;;;6.10;;
50709;SDS011;37033;49.994;21.992;2022-08-19T13:15:37;5.90;;;5.40;;
50709;SDS011;37033;49.994;21.992;2022-08-19T13:18:29;6.60;;;5.70;;
50709;SDS011;37033;49.994;21.992;2022-08-19T13:21:21;5.20;;;3.90;;
50709;SDS011;37033;49.994;21.992;2022-08-19T13:24:12;6.00;;;4.10;;
50709;SDS011;37033;49.994;21.992;2022-08-19T13:27:03;9.50;;;3.60;;
50709;SDS011;37033;49.994;21.992;2022-08-19T13:29:53;6.60;;;3.50;;
50709;SDS011;37033;49.994;21.992;2022-08-19T13:33:02;5.50;;;3.40;;
50709;SDS011;37033;49.994;21.992;2022-08-19T13:36:00;4.90;;;3.90;;
50709;SDS011;37033;49.994;21.992;2022-08-19T13:38:54;3.80;;;3.50;;
50709;SDS011;37033;49.994;21.992;2022-08-19T13:41:45;5.00;;;3.40;;
50709;SDS011;37033;49.994;21.992;2022-08-19T13:44:36;6.50;;;3.70;;
50709;SDS011;37033;49.994;21.992;2022-08-19T13:47:27;12.20;;;7.90;;
50709;SDS011;37033;49.994;21.992;2022-08-19T13:50:21;8.20;;;4.30;;
50709;SDS011;37033;49.994;21.992;2022-08-19T13:53:13;17.60;;;7.00;;
50709;SDS011;37033;49.994;21.992;2022-08-19T13:56:06;7.10;;;3.90;;
50709;SDS011;37033;49.994;21.992;2022-08-19T13:58:59;5.40;;;4.50;;
50709;SDS011;37033;49.994;21.992;2022-08-19T14:01:50;4.70;;;3.70;;
50709;SDS011;37033;49.994;21.992;2022-08-19T14:04:40;8.40;;;4.00;;
50709;SDS011;37033;49.994;21.992;2022-08-19T14:07:30;27.30;;;7.80;;
50709;SDS011;37033;49.994;21.992;2022-08-19T14:10:21;4.50;;;3.70;;
50709;SDS011;37033;49.994;21.992;2022-08-19T14:13:15;6.30;;;3.80;;
50709;SDS011;37033;49.994;21.992;2022-08-19T14:16:08;8.10;;;4.20;;
50709;SDS011;37033;49.994;21.992;2022-08-19T14:18:59;7.90;;;6.20;;
50709;SDS011;37033;49.994;21.992;2022-08-19T14:21:51;6.10;;;5.50;;
50709;SDS011;37033;49.994;21.992;2022-08-19T14:24:44;10.10;;;4.30;;
50709;SDS011;37033;49.994;21.992;2022-08-19T14:27:35;6.00;;;3.90;;
50709;SDS011;37033;49.994;21.992;2022-08-19T14:30:28;16.70;;;5.40;;
50709;SDS011;37033;49.994;21.992;2022-08-19T14:33:21;7.40;;;3.70;;
50709;SDS011;37033;49.994;21.992;2022-08-19T14:36:11;14.00;;;5.20;;
50709;SDS011;37033;49.994;21.992;2022-08-19T14:39:01;4.70;;;3.50;;
50709;SDS011;37033;49.994;21.992;2022-08-19T14:41:52;5.70;;;3.60;;
50709;SDS011;37033;49.994;21.992;2022-08-19T14:44:43;6.40;;;3.80;;
50709;SDS011;37033;49.994;21.992;2022-08-19T14:47:34;4.20;;;3.70;;
50709;SDS011;37033;49.994;21.992;2022-08-19T14:50:26;5.20;;;3.60;;
50709;SDS011;37033;49.994;21.992;2022-08-19T14:53:16;12.80;;;5.20;;
50709;SDS011;37033;49.994;21.992;2022-08-19T14:56:11;9.60;;;4.00;;
50709;SDS011;37033;49.994;21.992;2022-08-19T14:59:03;14.00;;;5.00;;
50709;SDS011;37033;49.994;21.992;2022-08-19T15:01:54;12.60;;;4.30;;
50709;SDS011;37033;49.994;21.992;2022-08-19T15:04:44;5.20;;;3.80;;
50709;SDS011;37033;49.994;21.992;2022-08-19T15:07:35;14.20;;;4.30;;
50709;SDS011;37033;49.994;21.992;2022-08-19T15:10:26;8.60;;;4.30;;
50709;SDS011;37033;49.994;21.992;2022-08-19T15:13:16;6.80;;;3.90;;
50709;SDS011;37033;49.994;21.992;2022-08-19T15:16:07;8.60;;;4.40;;
50709;SDS011;37033;49.994;21.992;2022-08-19T15:18:58;8.40;;;3.90;;
50709;SDS011;37033;49.994;21.992;2022-08-19T15:21:48;5.20;;;3.70;;
50709;SDS011;37033;49.994;21.992;2022-08-19T15:24:41;4.00;;;3.40;;
50709;SDS011;37033;49.994;21.992;2022-08-19T15:27:32;17.00;;;5.00;;
50709;SDS011;37033;49.994;21.992;2022-08-19T15:30:24;5.30;;;4.80;;
50709;SDS011;37033;49.994;21.992;2022-08-19T15:33:16;5.40;;;4.00;;
50709;SDS011;37033;49.994;21.992;2022-08-19T15:36:08;9.10;;;4.80;;
50709;SDS011;37033;49.994;21.992;2022-08-19T15:38:59;9.90;;;3.80;;
50709;SDS011;37033;49.994;21.992;2022-08-19T15:41:49;8.60;;;4.50;;
50709;SDS011;37033;49.994;21.992;2022-08-19T15:44:40;12.00;;;4.90;;
50709;SDS011;37033;49.994;21.992;2022-08-19T15:47:32;7.70;;;4.00;;
50709;SDS011;37033;49.994;21.992;2022-08-19T15:50:23;8.40;;;4.30;;
50709;SDS011;37033;49.994;21.992;2022-08-19T15:53:14;6.10;;;3.60;;
50709;SDS011;37033;49.994;21.992;2022-08-19T15:56:05;7.30;;;4.40;;
50709;SDS011;37033;49.994;21.992;2022-08-19T15:58:55;9.50;;;4.10;;
50709;SDS011;37033;49.994;21.992;2022-08-19T16:02:03;6.10;;;4.10;;
50709;SDS011;37033;49.994;21.992;2022-08-19T16:05:12;6.80;;;3.60;;
50709;SDS011;37033;49.994;21.992;2022-08-19T16:08:22;6.60;;;4.60;;
50709;SDS011;37033;49.994;21.992;2022-08-19T16:11:13;5.40;;;3.80;;
50709;SDS011;37033;49.994;21.992;2022-08-19T16:14:06;8.80;;;4.00;;
50709;SDS011;37033;49.994;21.992;2022-08-19T16:16:56;9.70;;;3.90;;
50709;SDS011;37033;49.994;21.992;2022-08-19T16:19:47;7.70;;;3.70;;
50709;SDS011;37033;49.994;21.992;2022-08-19T16:22:38;6.80;;;4.10;;
50709;SDS011;37033;49.994;21.992;2022-08-19T16:25:29;8.80;;;4.60;;
50709;SDS011;37033;49.994;21.992;2022-08-19T16:28:20;9.50;;;5.00;;
50709;SDS011;37033;49.994;21.992;2022-08-19T16:31:11;10.70;;;4.70;;
50709;SDS011;37033;49.994;21.992;2022-08-19T16:34:03;8.20;;;4.20;;
50709;SDS011;37033;49.994;21.992;2022-08-19T16:36:54;13.90;;;4.70;;
50709;SDS011;37033;49.994;21.992;2022-08-19T16:39:45;10.90;;;4.80;;
50709;SDS011;37033;49.994;21.992;2022-08-19T16:42:36;6.90;;;4.10;;
50709;SDS011;37033;49.994;21.992;2022-08-19T16:45:27;10.10;;;5.10;;
50709;SDS011;37033;49.994;21.992;2022-08-19T16:48:18;12.50;;;4.80;;
50709;SDS011;37033;49.994;21.992;2022-08-19T16:51:10;14.20;;;4.80;;